Time;durP1;ratioP1;P1;durP2;ratioP2;P2;SDS_P1;SDS_P2;PMS_P1;PMS_P2;Temp;Humidity;BMP_temperature;BMP_pressure;BME280_temperature;BME280_humidity;BME280_pressure;Samples;Min_cycle;Max_cycle;Signal;HPM_P1;HPM_P2
2021/06/19 05:00:48;;;;;;;1.40;1.30;;;;;;;25.30;69.61;94670.06;5965239;23;20025;-69
2021/06/19 05:03:17;;;;;;;2.15;1.77;;;;;;;25.65;68.70;94675.31;4915140;29;20037;-70
2021/06/19 05:05:43;;;;;;;;;;;;;;;26.76;67.68;94681.06;4933229;29;20099;-71
2021/06/19 05:08:08;;;;;;;1.70;1.60;;;;;;;26.05;66.26;94686.81;4929735;29;19915;-71
2021/06/19 05:10:34;;;;;;;1.80;1.70;;;;;;;26.90;63.59;94687.38;4915560;29;20275;-71
2021/06/19 05:12:59;;;;;;;3.42;2.00;;;;;;;27.49;62.76;94676.47;4913868;29;20477;-71
2021/06/19 05:15:25;;;;;;;2.03;1.83;;;;;;;27.56;61.64;94682.25;4915823;29;20501;-71
2021/06/19 05:17:51;;;;;;;2.38;1.55;;;;;;;28.03;62.45;94678.78;4930975;29;20031;-71
2021/06/19 05:20:16;;;;;;;1.88;1.73;;;;;;;28.78;59.64;94692.94;4914940;29;20078;-72
2021/06/19 05:22:42;;;;;;;2.15;1.95;;;;;;;29.49;56.97;94686.41;4914629;29;20024;-72
2021/06/19 05:25:08;;;;;;;1.80;1.50;;;;;;;29.69;53.95;94691.38;4898778;29;20114;-74
2021/06/19 05:27:33;;;;;;;1.85;1.50;;;;;;;30.30;53.24;94686.41;4916163;29;20107;-75
2021/06/19 05:29:58;;;;;;;3.15;1.13;;;;;;;28.43;56.67;94691.56;4913884;29;20035;-74
2021/06/19 05:32:24;;;;;;;1.30;1.20;;;;;;;29.67;57.75;94691.66;4915205;29;20110;-74
2021/06/19 05:34:50;;;;;;;2.78;1.42;;;;;;;28.86;57.00;94689.63;4913820;29;20031;-74
2021/06/19 05:37:15;;;;;;;1.95;1.50;;;;;;;29.49;57.03;94697.09;4915297;29;20027;-75
2021/06/19 05:39:41;;;;;;;1.58;1.48;;;;;;;29.81;56.10;94692.47;4931094;29;20024;-74
2021/06/19 05:42:06;;;;;;;1.67;1.58;;;;;;;30.38;54.22;94692.91;4898641;29;20444;-75
2021/06/19 05:44:32;;;;;;;2.35;1.67;;;;;;;29.31;52.94;94685.41;4898856;29;20035;-79
2021/06/19 05:46:57;;;;;;;1.60;1.42;;;;;;;27.16;59.59;94688.75;4898072;29;20024;-75
2021/06/19 05:49:23;;;;;;;1.30;1.20;;;;;;;26.79;63.72;94696.47;4932043;29;20516;-74
2021/06/19 05:51:48;;;;;;;1.90;1.25;;;;;;;28.34;58.54;94685.28;4913637;29;20031;-74
2021/06/19 05:54:14;;;;;;;1.05;1.00;;;;;;;29.13;57.50;94692.34;4914634;29;20524;-75
2021/06/19 05:56:39;;;;;;;1.70;1.35;;;;;;;29.03;57.75;94689.06;4913051;29;20466;-76
2021/06/19 05:59:05;;;;;;;4.00;1.20;;;;;;;29.59;56.02;94691.56;4914788;29;20127;-76
2021/06/19 06:01:31;;;;;;;5.40;1.45;;;;;;;30.39;53.38;94693.69;4916495;29;20040;-78
2021/06/19 06:03:59;;;;;;;1.23;1.13;;;;;;;30.91;53.15;94697.63;4914368;29;20055;-77
2021/06/19 06:06:25;;;;;;;1.13;1.10;;;;;;;30.80;52.29;94699.75;4930220;29;20333;-78
2021/06/19 06:08:50;;;;;;;1.40;1.30;;;;;;;31.52;51.99;94695.06;4913236;29;20110;-78
2021/06/19 06:11:15;;;;;;;1.20;1.08;;;;;;;31.96;50.31;94696.78;4914305;29;20035;-78
2021/06/19 06:13:41;;;;;;;1.33;1.23;;;;;;;29.44;54.88;94705.22;4928888;29;20391;-79
2021/06/19 06:16:07;;;;;;;1.63;1.50;;;;;;;27.79;58.81;94699.28;4930333;29;20087;-77
2021/06/19 06:18:32;;;;;;;1.70;1.60;;;;;;;28.54;56.20;94703.69;4928789;29;20039;-76
2021/06/19 06:20:58;;;;;;;1.80;1.70;;;;;;;27.53;58.35;94694.25;4928829;29;20082;-78
2021/06/19 06:23:24;;;;;;;4.05;1.50;;;;;;;28.58;58.31;94691.34;4929087;29;20024;-76
2021/06/19 06:25:52;;;;;;;1.48;1.38;;;;;;;29.77;55.92;94694.13;4913938;29;20040;-76
2021/06/19 06:28:18;;;;;;;2.83;1.80;;;;;;;29.99;53.95;94695.38;4935357;29;20036;-78
2021/06/19 06:30:46;;;;;;;1.67;1.58;;;;;;;29.90;55.63;94687.25;4940526;29;20034;-77
2021/06/19 06:33:11;;;;;;;1.83;1.73;;;;;;;30.34;52.89;94689.28;4942207;29;20031;-85
2021/06/19 06:35:37;;;;;;;2.25;1.75;;;;;;;29.85;53.59;94691.91;4947784;29;20106;-73
2021/06/19 06:38:02;;;;;;;2.08;1.98;;;;;;;29.98;54.36;94693.78;4949114;29;20555;-74
2021/06/19 06:40:28;;;;;;;2.95;2.10;;;;;;;30.14;53.58;94697.72;4930217;29;20019;-71
2021/06/19 06:42:53;;;;;;;3.80;1.70;;;;;;;31.50;52.38;94696.47;4929360;29;20055;-79
2021/06/19 06:45:19;;;;;;;2.28;1.80;;;;;;;30.77;52.45;94692.31;4931424;29;20422;-71
2021/06/19 06:47:44;;;;;;;2.50;2.05;;;;;;;29.89;52.12;94687.56;4929375;29;20095;-71
2021/06/19 06:50:10;;;;;;;2.20;2.03;;;;;;;29.69;54.47;94681.50;4917439;29;20038;-81
2021/06/19 06:52:36;;;;;;;4.25;2.00;;;;;;;29.56;54.37;94676.94;4930635;29;20030;-80
2021/06/19 06:55:05;;;;;;;1.80;1.70;;;;;;;30.90;51.80;94685.31;4908100;29;20039;-80
2021/06/19 06:57:30;;;;;;;2.00;1.80;;;;;;;29.80;52.40;94676.72;4931380;29;20035;-84
2021/06/19 06:59:56;;;;;;;2.50;1.65;;;;;;;29.54;54.60;94672.97;4913948;29;20020;-79
2021/06/19 07:02:22;;;;;;;4.00;1.90;;;;;;;29.91;53.29;94680.81;4929186;29;20044;-79
2021/06/19 07:04:49;;;;;;;2.78;2.05;;;;;;;28.16;56.55;94672.75;4913119;29;20027;-79
2021/06/19 07:07:14;;;;;;;1.83;1.73;;;;;;;28.80;57.33;94677.44;4913474;29;20568;-81
2021/06/19 07:09:40;;;;;;;2.28;1.70;;;;;;;31.57;50.91;94664.66;4911598;29;20034;-85
2021/06/19 07:12:05;;;;;;;1.50;1.40;;;;;;;36.24;42.60;94671.53;4929748;29;20050;-77
2021/06/19 07:14:31;;;;;;;1.77;1.67;;;;;;;34.60;41.44;94674.38;4930671;29;20027;-83
2021/06/19 07:16:57;;;;;;;2.22;2.13;;;;;;;29.82;51.94;94671.88;4917768;29;20038;-80
2021/06/19 07:19:22;;;;;;;4.85;1.60;;;;;;;43.63;30.26;94670.19;4917282;29;20032;-72
2021/06/19 07:21:47;;;;;;;3.08;2.03;;;;;;;43.54;28.73;94662.38;4932647;29;20023;-81
2021/06/19 07:24:13;;;;;;;1.65;1.50;;;;;;;49.43;22.45;94667.25;4901806;29;20024;-75
2021/06/19 07:26:38;;;;;;;1.70;1.60;;;;;;;49.69;23.01;94657.25;4915799;29;20083;-82
2021/06/19 07:29:04;;;;;;;6.53;2.13;;;;;;;49.20;23.14;94667.34;4923890;29;20035;-81
2021/06/19 07:31:29;;;;;;;2.17;1.92;;;;;;;37.12;34.24;94648.25;4915008;29;20574;-78
2021/06/19 07:33:55;;;;;;;2.17;1.98;;;;;;;34.31;41.92;94642.09;4917826;29;20035;-78
2021/06/19 07:36:20;;;;;;;2.13;2.03;;;;;;;32.27;45.93;94641.19;4931237;29;20032;-71
2021/06/19 07:38:46;;;;;;;3.47;2.40;;;;;;;30.33;49.13;94639.56;4933151;29;20027;-74
2021/06/19 07:41:11;;;;;;;2.10;1.90;;;;;;;30.43;50.70;94638.56;4931996;29;20043;-75
2021/06/19 07:43:37;;;;;;;3.83;2.10;;;;;;;29.28;51.19;94635.28;4916083;29;20035;-82
2021/06/19 07:46:03;;;;;;;2.13;2.03;;;;;;;29.19;54.19;94629.00;4934505;29;20031;-83
2021/06/19 07:48:28;;;;;;;3.50;2.00;;;;;;;29.16;52.79;94633.06;4916180;29;20027;-79
2021/06/19 07:50:54;;;;;;;2.60;2.40;;;;;;;28.22;53.54;94632.41;4933739;29;20461;-84
2021/06/19 07:53:20;;;;;;;2.28;2.10;;;;;;;27.97;55.81;94631.94;4931669;29;20024;-78
2021/06/19 07:55:45;;;;;;;2.40;1.88;;;;;;;27.46;56.78;94632.56;4901196;29;20058;-83
2021/06/19 07:58:11;;;;;;;2.45;1.98;;;;;;;28.81;56.26;94625.66;4919368;29;20110;-80
2021/06/19 08:00:36;;;;;;;2.22;1.77;;;;;;;29.73;52.04;94629.03;4931831;29;20043;-72
2021/06/19 08:03:02;;;;;;;2.80;1.75;;;;;;;30.23;52.12;94626.41;4932530;29;20044;-79
2021/06/19 08:05:28;;;;;;;1.70;1.60;;;;;;;30.60;50.31;94631.44;4915216;29;20027;-79
2021/06/19 08:07:54;;;;;;;1.67;1.58;;;;;;;29.92;51.71;94623.63;4901050;29;20070;-82
2021/06/19 08:10:19;;;;;;;2.30;2.13;;;;;;;29.45;53.70;94632.81;4899427;29;20108;-74
2021/06/19 08:12:45;;;;;;;2.42;1.95;;;;;;;28.63;54.48;94626.47;4932036;29;20036;-73
2021/06/19 08:15:11;;;;;;;2.22;1.85;;;;;;;28.01;56.74;94623.09;4931208;29;20104;-77
2021/06/19 08:17:36;;;;;;;2.47;2.28;;;;;;;27.24;59.25;94625.06;4916681;29;20032;-75
2021/06/19 08:20:03;;;;;;;2.42;2.22;;;;;;;27.21;58.95;94630.16;4932055;29;20094;-76
2021/06/19 08:22:28;;;;;;;6.43;2.00;;;;;;;27.30;57.91;94630.34;4900364;29;20031;-81
2021/06/19 08:24:54;;;;;;;2.80;2.13;;;;;;;28.11;56.37;94627.53;4915913;29;20028;-79
2021/06/19 08:27:23;;;;;;;2.10;1.65;;;;;;;29.50;52.98;94623.91;4930737;29;20087;-86
2021/06/19 08:29:52;;;;;;;3.22;1.85;;;;;;;30.17;51.81;94627.63;4932409;29;20023;-79
2021/06/19 08:32:18;;;;;;;2.00;1.52;;;;;;;29.65;50.35;94619.06;4932093;29;20032;-72
2021/06/19 08:34:43;;;;;;;1.88;1.73;;;;;;;29.98;52.68;94613.59;4933694;29;20030;-75
2021/06/19 08:37:09;;;;;;;2.63;2.08;;;;;;;30.23;51.64;94626.41;4931214;29;20034;-76
2021/06/19 08:39:34;;;;;;;2.20;2.10;;;;;;;30.75;49.37;94612.38;4931517;29;20505;-79
2021/06/19 08:42:00;;;;;;;5.80;1.52;;;;;;;30.94;47.80;94614.03;4916178;29;20039;-78
2021/06/19 08:44:27;;;;;;;3.60;1.85;;;;;;;31.57;50.33;94611.06;4930869;29;20028;-74
2021/06/19 08:46:53;;;;;;;2.10;1.90;;;;;;;30.99;49.36;94613.94;4896293;29;20024;-76
2021/06/19 08:49:19;;;;;;;2.50;1.70;;;;;;;29.38;48.20;94613.72;4919760;29;20415;-78
2021/06/19 08:51:45;;;;;;;1.60;1.50;;;;;;;29.86;50.40;94613.34;4938123;29;20027;-76
2021/06/19 08:54:11;;;;;;;3.38;1.75;;;;;;;28.38;54.08;94614.34;4920769;29;20054;-75
2021/06/19 08:56:38;;;;;;;2.33;1.85;;;;;;;28.66;55.37;94608.06;4943224;29;20032;-71
2021/06/19 08:59:03;;;;;;;2.10;1.92;;;;;;;29.93;53.12;94605.69;4923493;29;20094;-76
2021/06/19 09:01:29;;;;;;;2.22;2.03;;;;;;;30.42;50.68;94599.53;4941098;28;20055;-77
2021/06/19 09:03:54;;;;;;;2.10;1.90;;;;;;;29.86;51.53;94599.97;4938011;29;20548;-75
2021/06/19 09:06:25;;;;;;;2.03;1.88;;;;;;;30.15;52.32;94600.41;4940703;29;20485;-79
2021/06/19 09:09:04;;;;;;;3.83;1.92;;;;;;;30.93;48.03;94599.06;4934641;29;20031;-82
2021/06/19 09:11:33;;;;;;;1.50;1.40;;;;;;;30.63;49.30;94598.75;4949056;29;20086;-85
2021/06/19 09:14:10;;;;;;;1.55;1.45;;;;;;;31.39;45.71;94580.75;4950358;29;20043;-82
2021/06/19 09:16:37;;;;;;;1.75;1.65;;;;;;;30.52;47.26;94592.06;4928184;29;20062;-78
2021/06/19 09:19:03;;;;;;;2.42;1.40;;;;;;;29.84;46.71;94581.56;4914567;29;20035;-85
2021/06/19 09:21:31;;;;;;;1.63;1.52;;;;;;;29.03;50.08;94582.31;4903797;29;20028;-81
2021/06/19 09:23:57;;;;;;;3.15;2.10;;;;;;;30.16;52.42;94594.75;4935702;29;20032;-81
2021/06/19 09:26:27;;;;;;;1.98;1.88;;;;;;;31.45;49.30;94584.06;4928213;29;20020;-70
2021/06/19 09:29:04;;;;;;;2.08;1.55;;;;;;;31.61;47.52;94579.88;4920748;29;20063;-78
2021/06/19 09:31:38;;;;;;;2.97;1.77;;;;;;;30.18;48.91;94576.50;4927090;29;20038;-74
2021/06/19 09:34:09;;;;;;;2.88;1.63;;;;;;;30.57;51.16;94580.44;4928159;29;20454;-79
2021/06/19 09:36:38;;;;;;;2.15;1.90;;;;;;;30.46;50.23;94577.25;4914357;29;20110;-76
2021/06/19 09:39:05;;;;;;;2.25;2.00;;;;;;;30.94;49.76;94579.25;4913151;29;20031;-74
2021/06/19 09:41:47;;;;;;;1.52;1.42;;;;;;;31.73;46.96;94572.81;4917321;29;20027;-79
2021/06/19 09:44:13;;;;;;;1.33;1.23;;;;;;;29.96;47.75;94573.81;4939259;29;20034;-72
2021/06/19 09:46:38;;;;;;;1.52;1.38;;;;;;;30.18;48.83;94573.06;4936642;29;20055;-76
2021/06/19 09:49:16;;;;;;;4.18;1.67;;;;;;;29.72;46.41;94565.25;4888335;29;20079;-75
2021/06/19 09:51:49;;;;;;;1.40;1.30;;;;;;;28.94;50.61;94565.44;4923531;29;20907;-74
2021/06/19 09:54:15;;;;;;;1.58;1.48;;;;;;;28.92;51.08;94559.59;4909961;29;20062;-72
2021/06/19 09:56:59;;;;;;;4.43;1.38;;;;;;;28.85;49.45;94561.88;4930018;29;20036;-74
2021/06/19 09:59:28;;;;;;;2.35;1.55;;;;;;;29.46;48.51;94554.31;4930161;29;20034;-88
2021/06/19 10:01:54;;;;;;;1.50;1.15;;;;;;;29.51;48.76;94551.50;4942366;29;20051;-81
2021/06/19 10:04:26;;;;;;;1.55;1.27;;;;;;;29.91;49.15;94549.88;4949360;29;20023;-85
2021/06/19 10:06:52;;;;;;;1.58;1.45;;;;;;;28.52;48.96;94548.53;4948648;29;20083;-73
2021/06/19 10:09:18;;;;;;;4.00;1.40;;;;;;;27.31;52.21;94542.25;4916230;29;20031;-76
2021/06/19 10:11:45;;;;;;;1.48;1.38;;;;;;;28.56;49.34;94541.53;4916541;29;20046;-87
2021/06/19 10:14:16;;;;;;;1.60;1.40;;;;;;;29.16;50.58;94539.66;4917200;29;20027;-75
2021/06/19 10:16:42;;;;;;;2.03;1.60;;;;;;;28.67;51.28;94542.19;4916627;29;20035;-80
2021/06/19 10:19:08;;;;;;;2.25;1.70;;;;;;;28.27;51.74;94541.75;4916404;29;20039;-79
2021/06/19 10:21:33;;;;;;;1.70;1.60;;;;;;;26.95;57.51;94533.09;4914873;29;20031;-81
2021/06/19 10:23:59;;;;;;;3.13;1.35;;;;;;;27.37;57.47;94530.47;4915862;29;20430;-75
2021/06/19 10:26:24;;;;;;;2.13;1.80;;;;;;;27.19;56.99;94531.25;4915886;29;20477;-79
2021/06/19 10:28:53;;;;;;;3.03;1.63;;;;;;;27.08;57.38;94527.09;4930753;29;20042;-79
2021/06/19 10:31:18;;;;;;;1.67;1.57;;;;;;;26.47;57.11;94530.38;4915815;29;20031;-78
2021/06/19 10:33:44;;;;;;;2.33;1.40;;;;;;;26.27;59.62;94533.19;4930821;29;20028;-81
2021/06/19 10:36:10;;;;;;;3.67;1.60;;;;;;;26.09;59.45;94525.88;4915113;29;20425;-81
2021/06/19 10:38:52;;;;;;;3.65;1.33;;;;;;;26.23;57.05;94526.88;4899247;29;20046;-77
2021/06/19 10:41:22;;;;;;;1.60;1.50;;;;;;;27.83;54.57;94514.72;4930656;29;20033;-77
2021/06/19 10:43:49;;;;;;;3.08;1.23;;;;;;;27.93;51.56;94513.75;4931171;29;20059;-74
2021/06/19 10:46:33;;;;;;;1.23;1.13;;;;;;;27.88;49.81;94505.84;4911521;29;20027;-91
2021/06/19 10:49:00;;;;;;;1.30;1.20;;;;;;;27.41;53.18;94498.75;4919202;29;20381;-74
2021/06/19 10:51:30;;;;;;;1.25;1.15;;;;;;;28.42;52.55;94495.38;4928151;29;20482;-81
2021/06/19 10:54:28;;;;;;;1.67;1.45;;;;;;;29.21;53.14;94493.41;4929620;29;20079;-74
2021/06/19 10:57:00;;;;;;;1.52;1.30;;;;;;;29.19;52.39;94488.34;4923290;29;20043;-81
2021/06/19 10:59:27;;;;;;;1.30;1.17;;;;;;;29.58;52.55;94477.13;4928470;29;21038;-78
2021/06/19 11:01:54;;;;;;;1.63;1.52;;;;;;;29.49;51.22;94473.59;4896940;29;20047;-71
2021/06/19 11:04:41;;;;;;;1.80;1.70;;;;;;;28.46;51.22;94471.59;4910842;29;20414;-77
2021/06/19 11:07:18;;;;;;;1.50;1.40;;;;;;;28.42;51.92;94479.41;4928501;29;20651;-74
2021/06/19 11:09:45;;;;;;;1.45;1.35;;;;;;;27.71;53.93;94477.84;4929447;29;20039;-79
2021/06/19 11:12:16;;;;;;;1.08;1.00;;;;;;;27.41;52.23;94472.16;4928000;29;20429;-76
2021/06/19 11:14:42;;;;;;;1.30;1.20;;;;;;;27.32;54.74;94487.97;4948223;29;20027;-71
2021/06/19 11:17:07;;;;;;;1.40;1.30;;;;;;;27.26;60.40;94491.00;4948228;28;20031;-85
2021/06/19 11:19:35;;;;;;;1.77;1.55;;;;;;;26.93;61.71;94493.50;4947101;29;20143;-79
2021/06/19 11:22:35;;;;;;;1.73;1.63;;;;;;;26.66;63.12;94503.88;4927822;29;20055;-76
2021/06/19 11:25:28;;;;;;;2.83;1.83;;;;;;;26.34;65.05;94506.31;4898393;29;20418;-72
2021/06/19 11:28:04;;;;;;;2.92;2.60;;;;;;;26.04;67.09;94512.66;4918793;29;20043;-73
2021/06/19 11:30:35;;;;;;;3.05;2.85;;;;;;;25.05;69.59;94514.50;4927656;29;20505;-73
2021/06/19 11:33:26;;;;;;;3.25;2.95;;;;;;;24.69;70.43;94485.75;4926765;29;20563;-71
2021/06/19 11:35:52;;;;;;;4.03;3.15;;;;;;;24.74;72.42;94507.72;4928993;29;20030;-77
2021/06/19 11:38:18;;;;;;;4.78;2.97;;;;;;;25.27;72.72;94514.16;4928026;29;21130;-81
2021/06/19 11:40:44;;;;;;;3.67;3.30;;;;;;;25.57;72.22;94513.22;4927919;29;20055;-78
2021/06/19 11:43:10;;;;;;;3.35;3.05;;;;;;;26.02;74.28;94514.78;4895099;29;20028;-77
2021/06/19 11:45:37;;;;;;;2.17;2.05;;;;;;;26.09;69.27;94508.09;4926371;29;20043;-71
2021/06/19 11:48:02;;;;;;;4.40;2.35;;;;;;;24.86;71.57;94507.44;4927179;29;20111;-73
2021/06/19 11:50:35;;;;;;;2.22;2.03;;;;;;;23.82;73.48;94508.03;4928118;29;20031;-76
2021/06/19 11:53:39;;;;;;;3.08;2.35;;;;;;;24.64;71.43;94511.19;4906979;29;20060;-82
2021/06/19 11:56:14;;;;;;;2.17;1.75;;;;;;;23.94;71.85;94512.00;4869116;29;20936;-78
2021/06/19 11:58:53;;;;;;;2.92;2.20;;;;;;;23.17;74.21;94506.03;4870296;29;20492;-81
2021/06/19 12:01:24;;;;;;;2.15;1.95;;;;;;;23.30;74.58;94508.97;4873113;29;20048;-77
2021/06/19 12:03:50;;;;;;;3.45;2.30;;;;;;;22.83;76.68;94510.91;4896178;29;20474;-75
2021/06/19 12:06:16;;;;;;;3.92;2.45;;;;;;;22.43;78.46;94509.59;4913555;29;20498;-72
2021/06/19 12:08:42;;;;;;;3.15;2.50;;;;;;;22.46;77.84;94510.94;4911071;29;20032;-76
2021/06/19 12:11:08;;;;;;;2.65;2.22;;;;;;;22.64;78.20;94521.06;4912066;29;20090;-74
2021/06/19 12:13:41;;;;;;;2.17;1.98;;;;;;;22.59;77.13;94531.63;4895634;29;20100;-79
2021/06/19 12:16:07;;;;;;;2.40;2.20;;;;;;;22.39;79.17;94527.00;4896359;29;20522;-76
2021/06/19 12:18:33;;;;;;;2.38;2.17;;;;;;;22.20;81.79;94525.00;4896227;29;20039;-78
2021/06/19 12:21:09;;;;;;;2.28;2.03;;;;;;;21.96;81.83;94506.88;4912777;29;20490;-76
2021/06/19 12:23:44;;;;;;;2.17;1.98;;;;;;;21.32;81.98;94521.03;4897119;29;20664;-74
2021/06/19 12:26:14;;;;;;;8.52;2.17;;;;;;;21.04;77.71;94527.25;4895142;29;20032;-74
2021/06/19 12:28:47;;;;;;;5.38;3.17;;;;;;;21.45;82.91;94553.06;4896667;29;20055;-73
2021/06/19 12:31:14;;;;;;;2.45;2.25;;;;;;;21.47;82.81;94548.34;4911334;29;20050;-77
2021/06/19 12:33:39;;;;;;;3.10;2.40;;;;;;;21.36;83.94;94548.47;4895963;29;20464;-77
2021/06/19 12:36:08;;;;;;;7.70;2.72;;;;;;;21.24;88.17;94550.44;4911884;29;20465;-74
2021/06/19 12:38:33;;;;;;;9.65;2.90;;;;;;;20.68;93.15;94564.72;4910930;29;20024;-75
2021/06/19 12:40:59;;;;;;;4.70;2.33;;;;;;;20.30;92.47;94553.13;4927502;29;20149;-73
2021/06/19 12:43:24;;;;;;;5.50;2.15;;;;;;;20.22;91.95;94558.78;4910423;29;20042;-69
2021/06/19 12:45:51;;;;;;;2.03;1.70;;;;;;;20.18;90.64;94557.66;4895451;29;20040;-72
2021/06/19 12:48:37;;;;;;;2.28;2.08;;;;;;;20.16;89.62;94554.47;4910730;29;20035;-75
2021/06/19 12:51:04;;;;;;;2.45;2.25;;;;;;;20.28;88.28;94554.41;4921567;29;20410;-74
2021/06/19 12:53:31;;;;;;;4.30;1.95;;;;;;;20.40;88.31;94550.66;4912464;29;20035;-73
2021/06/19 12:55:57;;;;;;;2.25;2.03;;;;;;;20.57;89.02;94557.72;4911853;29;20047;-69
2021/06/19 12:58:31;;;;;;;3.28;2.42;;;;;;;20.78;86.21;94562.22;4937742;29;20110;-74
2021/06/19 13:00:57;;;;;;;3.58;3.13;;;;;;;21.08;86.45;94561.81;4934785;29;20031;-75
2021/06/19 13:03:40;;;;;;;3.28;2.65;;;;;;;21.76;84.55;94566.56;4910511;29;20034;-75
2021/06/19 13:06:06;;;;;;;2.63;2.42;;;;;;;22.09;84.28;94571.63;4929489;29;20456;-74
2021/06/19 13:08:32;;;;;;;2.47;2.28;;;;;;;22.06;82.96;94572.13;4904214;29;20028;-72
2021/06/19 13:10:59;;;;;;;2.60;2.40;;;;;;;21.82;83.94;94573.47;4917018;29;20023;-71
2021/06/19 13:13:41;;;;;;;2.58;2.38;;;;;;;21.70;84.64;94572.81;4916632;29;20039;-70
2021/06/19 13:16:07;;;;;;;4.50;2.80;;;;;;;21.83;85.33;94559.25;4916933;29;20031;-70
2021/06/19 13:18:34;;;;;;;3.13;2.78;;;;;;;22.09;84.56;94560.28;4916252;29;20327;-73
2021/06/19 13:21:06;;;;;;;3.53;3.22;;;;;;;22.48;82.41;94557.16;4916744;29;20436;-72
2021/06/19 13:23:32;;;;;;;3.00;2.80;;;;;;;22.77;80.59;94554.19;4917046;29;20035;-72
2021/06/19 13:26:05;;;;;;;3.65;2.90;;;;;;;23.03;80.22;94551.41;4897009;29;20035;-73
2021/06/19 13:28:44;;;;;;;5.97;2.85;;;;;;;22.94;80.81;94555.59;4914096;29;20019;-72
2021/06/19 13:31:18;;;;;;;2.97;2.78;;;;;;;22.79;81.51;94542.31;4912767;29;20032;-74
2021/06/19 13:33:47;;;;;;;4.35;2.95;;;;;;;22.74;82.12;94541.47;4914817;29;20027;-72
2021/06/19 13:36:37;;;;;;;3.08;2.70;;;;;;;22.63;82.78;94545.91;4897656;29;20040;-73
2021/06/19 13:39:22;;;;;;;2.80;2.60;;;;;;;22.63;81.87;94559.09;4914205;29;20094;-68
2021/06/19 13:41:53;;;;;;;3.80;2.90;;;;;;;22.66;82.39;94561.25;4904086;29;20035;-73
2021/06/19 13:44:20;;;;;;;2.80;2.60;;;;;;;22.39;81.74;94566.59;4915158;29;20031;-74
2021/06/19 13:46:46;;;;;;;2.72;2.40;;;;;;;22.46;82.03;94567.19;4932473;29;20110;-72
2021/06/19 13:49:14;;;;;;;2.88;2.67;;;;;;;22.38;81.61;94569.50;4915158;29;20166;-73
2021/06/19 13:51:39;;;;;;;3.15;2.85;;;;;;;22.09;82.86;94584.03;4892770;29;20036;-72
2021/06/19 13:54:05;;;;;;;6.47;3.28;;;;;;;22.12;83.10;94592.25;4894252;29;20032;-71
2021/06/19 13:56:31;;;;;;;3.10;2.80;;;;;;;21.31;83.72;94594.03;4872548;29;20046;-73
2021/06/19 13:58:56;;;;;;;2.80;2.60;;;;;;;21.37;85.11;94606.22;4893547;29;20430;-72
2021/06/19 14:01:23;;;;;;;3.67;3.38;;;;;;;21.60;85.80;94597.25;4878775;29;20044;-73
2021/06/19 14:03:49;;;;;;;3.95;3.30;;;;;;;21.72;85.23;94605.81;4894594;29;20029;-72
2021/06/19 14:06:15;;;;;;;3.85;3.55;;;;;;;21.72;85.67;94608.44;4892956;29;20032;-72
2021/06/19 14:08:44;;;;;;;2.65;2.45;;;;;;;21.57;85.27;94613.56;4909420;29;20032;-74
2021/06/19 14:11:10;;;;;;;4.03;3.05;;;;;;;21.43;86.70;94613.13;4909748;29;20058;-74
2021/06/19 14:13:36;;;;;;;3.63;3.20;;;;;;;21.18;87.57;94607.56;4892979;29;20049;-73
2021/06/19 14:16:01;;;;;;;3.67;3.38;;;;;;;21.15;87.94;94605.41;4893998;29;20403;-74
2021/06/19 14:18:27;;;;;;;4.68;3.38;;;;;;;21.18;88.79;94606.75;4924813;29;20032;-73
2021/06/19 14:20:52;;;;;;;4.28;3.88;;;;;;;21.13;89.33;94593.53;4894089;29;20056;-76
2021/06/19 14:23:18;;;;;;;3.83;3.53;;;;;;;21.11;89.37;94591.13;4909821;29;20024;-74
2021/06/19 14:25:44;;;;;;;6.40;4.68;;;;;;;21.03;88.93;94587.03;4910699;29;20035;-72
2021/06/19 14:28:09;;;;;;;6.03;4.80;;;;;;;20.87;89.85;94573.94;4909683;29;20035;-71
2021/06/19 14:30:35;;;;;;;4.97;4.30;;;;;;;20.90;90.03;94570.81;4893682;29;20036;-73
2021/06/19 14:33:01;;;;;;;5.10;4.40;;;;;;;20.86;90.43;94559.97;4905755;29;20055;-72
2021/06/19 14:35:26;;;;;;;4.88;4.47;;;;;;;20.87;91.08;94564.19;4946615;29;20059;-69
2021/06/19 14:37:52;;;;;;;8.57;4.47;;;;;;;20.81;91.14;94554.63;4930908;29;20027;-70
2021/06/19 14:40:17;;;;;;;5.72;5.13;;;;;;;20.86;91.81;94556.53;4946864;29;20038;-72
2021/06/19 14:42:43;;;;;;;5.20;4.78;;;;;;;21.00;92.08;94558.56;4947120;29;20176;-72
2021/06/19 14:45:09;;;;;;;9.80;5.32;;;;;;;21.20;92.07;94547.50;4930676;29;20031;-70
2021/06/19 14:47:38;;;;;;;6.13;5.25;;;;;;;21.45;91.34;94555.69;4919131;29;20028;-70
2021/06/19 14:50:04;;;;;;;5.55;4.88;;;;;;;21.65;90.68;94541.91;4908451;29;20024;-71
2021/06/19 14:52:29;;;;;;;5.88;4.90;;;;;;;21.76;90.03;94537.53;4924063;29;20028;-68
2021/06/19 14:54:55;;;;;;;5.40;4.90;;;;;;;21.97;89.68;94526.16;4909019;29;20028;-70
2021/06/19 14:57:20;;;;;;;8.35;5.88;;;;;;;21.74;89.84;94529.88;4907588;29;20479;-72
2021/06/19 14:59:46;;;;;;;6.55;5.68;;;;;;;21.94;90.79;94535.38;4924127;29;20048;-70
2021/06/19 15:02:11;;;;;;;5.53;5.03;;;;;;;22.21;90.20;94539.81;4923353;29;20102;-70
2021/06/19 15:04:37;;;;;;;5.20;4.70;;;;;;;22.28;89.70;94538.56;4903505;29;20035;-71
2021/06/19 15:07:02;;;;;;;5.55;4.75;;;;;;;22.30;88.62;94546.19;4907780;29;20032;-68
2021/06/19 15:09:28;;;;;;;4.80;4.40;;;;;;;22.39;88.50;94552.59;4908364;29;20028;-69
2021/06/19 15:11:53;;;;;;;3.95;3.58;;;;;;;22.36;88.72;94542.53;4876966;29;20032;-69
2021/06/19 15:14:19;;;;;;;4.20;3.80;;;;;;;22.39;88.77;94542.84;4909068;29;20039;-71
2021/06/19 15:16:44;;;;;;;4.55;3.63;;;;;;;22.33;88.24;94545.69;4908889;29;20505;-70
2021/06/19 15:19:11;;;;;;;4.13;3.70;;;;;;;22.22;88.85;94542.16;4908948;29;20044;-71
2021/06/19 15:21:38;;;;;;;4.72;3.63;;;;;;;22.16;88.68;94548.47;4892958;29;20032;-70
2021/06/19 15:24:04;;;;;;;5.05;4.03;;;;;;;22.11;89.33;94547.63;4909115;29;20024;-70
2021/06/19 15:26:30;;;;;;;5.72;5.05;;;;;;;21.96;90.10;94549.09;4909616;29;20107;-69
2021/06/19 15:28:55;;;;;;;4.70;4.15;;;;;;;21.91;90.55;94542.97;4908182;29;20032;-70
2021/06/19 15:31:21;;;;;;;6.68;4.07;;;;;;;22.05;90.16;94550.25;4909438;29;20033;-69
2021/06/19 15:33:46;;;;;;;11.25;5.00;;;;;;;22.05;90.29;94546.81;4908592;29;20402;-69
2021/06/19 15:36:12;;;;;;;5.20;4.38;;;;;;;22.03;90.31;94546.25;4912420;29;20103;-69
2021/06/19 15:38:37;;;;;;;4.63;4.20;;;;;;;22.07;90.79;94547.34;4934502;29;20055;-69
2021/06/19 15:41:03;;;;;;;5.20;4.07;;;;;;;22.14;90.24;94552.41;4907820;29;20078;-68
2021/06/19 15:43:29;;;;;;;7.35;4.85;;;;;;;22.12;89.91;94539.47;4937463;29;20028;-69
2021/06/19 15:45:55;;;;;;;4.40;3.63;;;;;;;22.14;90.80;94544.50;4943448;29;20023;-69
2021/06/19 15:48:23;;;;;;;3.97;3.60;;;;;;;22.11;90.64;94539.72;4919708;29;20413;-69
2021/06/19 15:50:48;;;;;;;4.88;4.40;;;;;;;22.05;90.27;94546.81;4921111;29;20031;-68
2021/06/19 15:53:15;;;;;;;6.93;4.28;;;;;;;22.04;90.38;94538.09;4931113;29;20533;-70
2021/06/19 15:55:40;;;;;;;6.60;3.88;;;;;;;21.94;89.96;94539.84;4927501;29;20581;-69
2021/06/19 15:58:05;;;;;;;4.88;3.75;;;;;;;21.95;89.97;94547.50;4932790;29;20024;-71
2021/06/19 16:00:31;;;;;;;4.07;3.78;;;;;;;21.86;90.43;94542.91;4938727;29;20032;-69
2021/06/19 16:02:56;;;;;;;4.07;3.67;;;;;;;21.88;90.47;94538.19;4933050;29;20512;-68
2021/06/19 16:05:22;;;;;;;6.18;3.65;;;;;;;22.15;90.31;94530.25;4932857;29;20497;-69
2021/06/19 16:07:48;;;;;;;6.63;3.88;;;;;;;22.18;90.46;94530.56;4933400;29;20028;-69
2021/06/19 16:10:13;;;;;;;3.42;3.13;;;;;;;22.32;90.01;94523.78;4938796;29;20055;-69
2021/06/19 16:12:38;;;;;;;3.97;3.67;;;;;;;22.23;88.36;94522.66;4942951;29;20037;-69
2021/06/19 16:15:05;;;;;;;3.40;2.92;;;;;;;22.28;87.00;94517.44;4913136;29;20028;-69
2021/06/19 16:17:30;;;;;;;5.82;3.03;;;;;;;22.16;86.69;94521.28;4935423;29;20062;-69
2021/06/19 16:19:56;;;;;;;2.97;2.70;;;;;;;21.94;87.46;94526.66;4912376;29;20061;-68
2021/06/19 16:22:21;;;;;;;3.63;3.33;;;;;;;21.93;88.88;94530.34;4903907;29;20461;-68
2021/06/19 16:24:47;;;;;;;4.38;3.80;;;;;;;22.11;89.33;94523.88;4898774;29;20070;-68
2021/06/19 16:27:13;;;;;;;3.75;3.47;;;;;;;21.94;85.08;94532.72;4917467;29;20034;-69
2021/06/19 16:29:39;;;;;;;3.38;3.08;;;;;;;21.77;86.29;94532.00;4934221;29;20027;-69
2021/06/19 16:32:05;;;;;;;3.55;3.25;;;;;;;21.54;87.56;94540.25;4917152;29;20027;-68
2021/06/19 16:34:30;;;;;;;4.35;3.05;;;;;;;21.43;88.18;94543.81;4933660;29;20031;-67
2021/06/19 16:36:55;;;;;;;2.53;2.33;;;;;;;21.48;87.92;94547.28;4923033;29;20043;-68